WetterOnline ( https://www.wetteronline.de )

Wetter aktuell Niedernhausen

Aktuelles Wetter: Kleiner Feldberg (802m)

6-stündlich | Neueste Meldungen
Ortszeit Temperatur Wetter
Do, 04.03. 13:00 6.0° C leichter Regen
Do, 04.03. 7:00 6.6° C wolkig
Do, 04.03. 1:00 7.0° C bewölkt
Mi, 03.03. 19:00 7.7° C bedeckt
Mi, 03.03. 13:00 10.7° C wolkenlos
Mi, 03.03. 7:00 6.3° C wolkig
Mi, 03.03. 1:00 6.4° C wolkenlos
Di, 02.03. 19:00 6.5° C wolkenlos
Ortszeit Temperatur Wetter
Do, 04.03. 14:10 6.0° C bewölkt
Do, 04.03. 14:00 6.9° C bedeckt
Do, 04.03. 13:50 6.9° C bedeckt
Do, 04.03. 13:40 7.3° C bedeckt
Do, 04.03. 13:30 7.9° C bewölkt
Do, 04.03. 13:20 7.9° C bewölkt
Do, 04.03. 13:00 6.0° C leichter Regen
Do, 04.03. 12:30 6.7° C bedeckt
Do, 04.03. 12:00 8.2° C wolkig
Ortszeit Relative Feuchte Sichtweite
Do, 04.03. 13:00 79% 12 km
Do, 04.03. 7:00 74% 11 km
Do, 04.03. 1:00 64% 27 km
Mi, 03.03. 19:00 66% 20 km
Mi, 03.03. 13:00 43% 30 km
Mi, 03.03. 7:00 48% 45 km
Mi, 03.03. 1:00 53% 30 km
Di, 02.03. 19:00 64% 30 km
Ortszeit Relative Feuchte Sichtweite
Do, 04.03. 14:10 82% -
Do, 04.03. 14:00 79% 12 km
Do, 04.03. 13:50 79% -
Do, 04.03. 13:40 76% -
Do, 04.03. 13:30 75% 13 km
Do, 04.03. 13:20 75% -
Do, 04.03. 13:00 79% 12 km
Do, 04.03. 12:30 76% 12 km
Do, 04.03. 12:00 69% 16 km
Ortszeit Niederschlagsmenge Niederschlagsart
Do, 04.03. 13:00 0.1 l/m2 in 6 Std. Regen
Do, 04.03. 7:00 0.0 l/m2 in 12 Std. -
Do, 04.03. 1:00 0.0 l/m2 in 6 Std. -
Mi, 03.03. 19:00 0.0 l/m2 in 12 Std. -
Mi, 03.03. 13:00 0.0 l/m2 in 6 Std. -
Mi, 03.03. 7:00 0.0 l/m2 in 12 Std. -
Mi, 03.03. 1:00 0.0 l/m2 in 6 Std. -
Di, 02.03. 19:00 0.0 l/m2 in 12 Std. -
Ortszeit Niederschlagsmenge Niederschlagsart
Do, 04.03. 14:10 keine Meldung -
Do, 04.03. 14:00 0.1 l/m2 in 1 Std. Regen
Do, 04.03. 13:50 keine Meldung -
Do, 04.03. 13:40 keine Meldung -
Do, 04.03. 13:30 0.1 l/m2 in 1 Std. Schneeregen
Do, 04.03. 13:20 keine Meldung -
Do, 04.03. 13:00 0.1 l/m2 in 1 Std. Regen
Do, 04.03. 12:30 0.0 l/m2 in 1 Std. -
Do, 04.03. 12:00 0.0 l/m2 in 1 Std. -
Ortszeit Stärke Spitze Richtung
km/h Bft. km/h Grad Sektor
Do, 04.03. 13:00 7 2 22 300° NW
Do, 04.03. 7:00 6 1 20 340° N
Do, 04.03. 1:00 7 2 25 310° NW
Mi, 03.03. 19:00 7 2 22 250° W
Mi, 03.03. 13:00 9 2 28 230° SW
Mi, 03.03. 7:00 11 2 17 210° SW
Mi, 03.03. 1:00 11 2 14 190° S
Di, 02.03. 19:00 9 2 15 100° O
Ortszeit Stärke Spitze Richtung
km/h Bft. km/h Grad Sektor
Do, 04.03. 14:10 11 2 - 290° W
Do, 04.03. 14:00 9 2 24 300° NW
Do, 04.03. 13:50 9 2 - 300° NW
Do, 04.03. 13:40 11 2 - 300° NW
Do, 04.03. 13:30 9 2 22 290° W
Do, 04.03. 13:20 9 2 - 290° W
Do, 04.03. 13:00 7 2 22 300° NW
Do, 04.03. 12:30 11 2 22 300° NW
Do, 04.03. 12:00 11 2 18 290° W
Ortszeit Untergrenze Bedeckung Gattung
total tief tief mittel hoch
Do, 04.03. 13:00 990 m 8/8 8/8 - - -
Do, 04.03. 7:00 1800 m 7/8 5/8 - - -
Do, 04.03. 1:00 2400 m 8/8 5/8 - - -
Mi, 03.03. 19:00 2700 m 8/8 8/8 - - -
Mi, 03.03. 13:00 - 0/8 0/8 - - -
Mi, 03.03. 7:00 8100 m 8/8 0/8 - - -
Mi, 03.03. 1:00 - 0/8 0/8 - - -
Di, 02.03. 19:00 - 0/8 0/8 - - -
Ortszeit Bedeckungsgrad in Achtel und Wolkenuntergrenze
Do, 04.03. 14:10 6(270m) 6(510m) 7(2100m)
Do, 04.03. 14:00 4(300m) 4(810m) 8(2100m)
Do, 04.03. 13:50 4(300m) 4(810m) 8(2100m)
Do, 04.03. 13:40 2(300m) 7(2100m) 8(2400m)
Do, 04.03. 13:30 7(1800m) 7(2400m)
Do, 04.03. 13:20 7(1800m) 7(2400m)
Do, 04.03. 13:00 4(990m) 8(1500m) 8(2700m)
Do, 04.03. 12:30 7(1800m) 8(2400m) 8(2400m)
Do, 04.03. 12:00 2(1350m) 5(1800m) 7(3000m)
Ortszeit Stationsdruck (hPa) Tendenz (hPa in 3 Std.)
Do, 04.03. 13:00 922 - 1,0
Do, 04.03. 7:00 924 - 1,6
Do, 04.03. 1:00 927 - 1,7
Mi, 03.03. 19:00 930 - 0,7
Mi, 03.03. 13:00 932 - 0,6
Mi, 03.03. 7:00 932 - 0,6
Mi, 03.03. 1:00 933 - 0,6
Di, 02.03. 19:00 934 0,0
Ortszeit Stationsdruck (hPa) Tendenz (hPa in 3 Std.)
Do, 04.03. 14:10 921 keine Meldung
Do, 04.03. 14:00 921 - 1,4
Do, 04.03. 13:50 921 keine Meldung
Do, 04.03. 13:40 921 keine Meldung
Do, 04.03. 13:30 921 - 1,1
Do, 04.03. 13:20 921 keine Meldung
Do, 04.03. 13:00 922 - 1,0
Do, 04.03. 12:30 922 - 1,0
Do, 04.03. 12:00 922 - 1,0
Ortszeit Schneehöhe (cm)
Do, 04.03. 13:00 0
Do, 04.03. 7:00 0
Do, 04.03. 1:00 0
Mi, 03.03. 19:00 0
Mi, 03.03. 13:00 0
Mi, 03.03. 7:00 0
Mi, 03.03. 1:00 0
Di, 02.03. 19:00 0
Ortszeit Schneehöhe (cm)
Do, 04.03. 14:10 0
Do, 04.03. 14:00 0
Do, 04.03. 13:50 0
Do, 04.03. 13:40 0
Do, 04.03. 13:30 0
Do, 04.03. 13:20 0
Do, 04.03. 13:00 0
Do, 04.03. 12:30 0
Do, 04.03. 12:00 0
Link zu dieser Seite / Seite empfehlen

Das Wetter in ...